sensor_id;sensor_type;location;lat;lon;timestamp;temperature;humidity
20594;DHT22;10455;48.732;10.266;2022-12-18T00:03:44;-7.90;99.90
20594;DHT22;10455;48.732;10.266;2022-12-18T00:08:47;-7.50;99.90
20594;DHT22;10455;48.732;10.266;2022-12-18T00:13:49;-7.30;99.90
20594;DHT22;10455;48.732;10.266;2022-12-18T00:18:53;-7.10;99.90
20594;DHT22;10455;48.732;10.266;2022-12-18T00:23:57;-7.00;99.90
20594;DHT22;10455;48.732;10.266;2022-12-18T00:28:59;-7.20;99.90
20594;DHT22;10455;48.732;10.266;2022-12-18T00:34:02;-7.20;99.90
20594;DHT22;10455;48.732;10.266;2022-12-18T00:39:06;-7.20;99.90
20594;DHT22;10455;48.732;10.266;2022-12-18T00:44:09;-7.00;99.90
20594;DHT22;10455;48.732;10.266;2022-12-18T00:49:12;-7.00;99.90
20594;DHT22;10455;48.732;10.266;2022-12-18T00:54:15;-7.00;99.90
20594;DHT22;10455;48.732;10.266;2022-12-18T00:59:18;-6.90;99.90
20594;DHT22;10455;48.732;10.266;2022-12-18T01:04:20;-7.10;99.90
20594;DHT22;10455;48.732;10.266;2022-12-18T01:09:23;-7.10;99.90
20594;DHT22;10455;48.732;10.266;2022-12-18T01:14:25;-7.10;99.90
20594;DHT22;10455;48.732;10.266;2022-12-18T01:19:27;-7.10;99.90
20594;DHT22;10455;48.732;10.266;2022-12-18T01:24:30;-7.10;99.90
20594;DHT22;10455;48.732;10.266;2022-12-18T01:29:32;-7.10;99.90
20594;DHT22;10455;48.732;10.266;2022-12-18T01:34:35;-6.90;99.90
20594;DHT22;10455;48.732;10.266;2022-12-18T01:39:38;-6.80;99.90
20594;DHT22;10455;48.732;10.266;2022-12-18T01:45:02;-6.90;99.90
20594;DHT22;10455;48.732;10.266;2022-12-18T01:50:07;-7.30;99.90
20594;DHT22;10455;48.732;10.266;2022-12-18T01:55:12;-7.50;99.90
20594;DHT22;10455;48.732;10.266;2022-12-18T02:00:18;-7.50;99.90
20594;DHT22;10455;48.732;10.266;2022-12-18T02:05:27;-7.40;99.90
20594;DHT22;10455;48.732;10.266;2022-12-18T02:10:44;-7.20;99.90
20594;DHT22;10455;48.732;10.266;2022-12-18T02:15:51;-7.10;99.90
20594;DHT22;10455;48.732;10.266;2022-12-18T02:21:04;-7.00;99.90
20594;DHT22;10455;48.732;10.266;2022-12-18T02:26:18;-7.00;99.90
20594;DHT22;10455;48.732;10.266;2022-12-18T02:31:24;-7.10;99.90
20594;DHT22;10455;48.732;10.266;2022-12-18T02:36:28;-7.10;99.90
20594;DHT22;10455;48.732;10.266;2022-12-18T02:41:32;-6.80;99.90
20594;DHT22;10455;48.732;10.266;2022-12-18T02:46:38;-6.70;99.90
20594;DHT22;10455;48.732;10.266;2022-12-18T02:51:49;-6.90;99.90
20594;DHT22;10455;48.732;10.266;2022-12-18T02:56:55;-6.80;99.90
20594;DHT22;10455;48.732;10.266;2022-12-18T03:02:02;-6.80;99.90
20594;DHT22;10455;48.732;10.266;2022-12-18T03:07:10;-6.60;99.90
20594;DHT22;10455;48.732;10.266;2022-12-18T03:12:18;-6.70;99.90
20594;DHT22;10455;48.732;10.266;2022-12-18T03:17:27;-6.60;99.90
20594;DHT22;10455;48.732;10.266;2022-12-18T03:22:32;-6.60;99.90
20594;DHT22;10455;48.732;10.266;2022-12-18T03:27:38;-6.70;99.90
20594;DHT22;10455;48.732;10.266;2022-12-18T03:32:44;-6.80;99.90
20594;DHT22;10455;48.732;10.266;2022-12-18T03:37:48;-6.60;99.90
20594;DHT22;10455;48.732;10.266;2022-12-18T03:42:54;-6.70;99.90
20594;DHT22;10455;48.732;10.266;2022-12-18T03:48:02;-6.70;99.90
20594;DHT22;10455;48.732;10.266;2022-12-18T03:53:16;-6.60;99.90
20594;DHT22;10455;48.732;10.266;2022-12-18T03:58:24;-6.80;99.90
20594;DHT22;10455;48.732;10.266;2022-12-18T04:03:28;-6.80;99.90
20594;DHT22;10455;48.732;10.266;2022-12-18T04:08:33;-6.60;99.90
20594;DHT22;10455;48.732;10.266;2022-12-18T04:13:38;-6.60;99.90
20594;DHT22;10455;48.732;10.266;2022-12-18T04:18:40;-6.70;99.90
20594;DHT22;10455;48.732;10.266;2022-12-18T04:23:42;-6.70;99.90
20594;DHT22;10455;48.732;10.266;2022-12-18T04:28:45;-6.70;99.90
20594;DHT22;10455;48.732;10.266;2022-12-18T04:33:47;-6.70;99.90
20594;DHT22;10455;48.732;10.266;2022-12-18T04:38:49;-6.60;99.90
20594;DHT22;10455;48.732;10.266;2022-12-18T04:43:52;-6.60;99.90
20594;DHT22;10455;48.732;10.266;2022-12-18T04:48:54;-6.60;99.90
20594;DHT22;10455;48.732;10.266;2022-12-18T04:53:56;-6.60;99.90
20594;DHT22;10455;48.732;10.266;2022-12-18T04:58:59;-6.70;99.90
20594;DHT22;10455;48.732;10.266;2022-12-18T05:04:01;-6.90;99.90
20594;DHT22;10455;48.732;10.266;2022-12-18T05:09:03;-6.70;99.90
20594;DHT22;10455;48.732;10.266;2022-12-18T05:14:07;-6.80;99.90
20594;DHT22;10455;48.732;10.266;2022-12-18T05:19:09;-6.80;99.90
20594;DHT22;10455;48.732;10.266;2022-12-18T05:24:10;-6.60;99.90
20594;DHT22;10455;48.732;10.266;2022-12-18T05:29:14;-6.70;99.90
20594;DHT22;10455;48.732;10.266;2022-12-18T05:34:15;-6.80;99.90
20594;DHT22;10455;48.732;10.266;2022-12-18T05:39:17;-6.70;99.90
20594;DHT22;10455;48.732;10.266;2022-12-18T05:44:21;-6.90;99.90
20594;DHT22;10455;48.732;10.266;2022-12-18T05:49:23;-6.60;99.90
20594;DHT22;10455;48.732;10.266;2022-12-18T05:54:28;-6.40;99.90
20594;DHT22;10455;48.732;10.266;2022-12-18T05:59:33;-6.50;99.90
20594;DHT22;10455;48.732;10.266;2022-12-18T06:04:34;-6.50;99.90
20594;DHT22;10455;48.732;10.266;2022-12-18T06:09:38;-6.30;99.90
20594;DHT22;10455;48.732;10.266;2022-12-18T06:14:41;-6.40;99.90
20594;DHT22;10455;48.732;10.266;2022-12-18T06:19:43;-6.40;99.90
20594;DHT22;10455;48.732;10.266;2022-12-18T06:24:45;-6.50;99.90
20594;DHT22;10455;48.732;10.266;2022-12-18T06:34:51;-6.20;99.90
20594;DHT22;10455;48.732;10.266;2022-12-18T06:39:53;-6.20;99.90
20594;DHT22;10455;48.732;10.266;2022-12-18T06:44:58;-6.10;99.90
20594;DHT22;10455;48.732;10.266;2022-12-18T06:50:00;-6.10;99.90
20594;DHT22;10455;48.732;10.266;2022-12-18T06:55:03;-6.30;99.90
20594;DHT22;10455;48.732;10.266;2022-12-18T07:00:07;-6.20;99.90
20594;DHT22;10455;48.732;10.266;2022-12-18T07:05:09;-6.20;99.90
20594;DHT22;10455;48.732;10.266;2022-12-18T07:10:11;-6.10;99.90
20594;DHT22;10455;48.732;10.266;2022-12-18T07:15:14;-5.90;99.90
20594;DHT22;10455;48.732;10.266;2022-12-18T07:20:17;-5.70;99.90
20594;DHT22;10455;48.732;10.266;2022-12-18T07:25:19;-5.80;99.90
20594;DHT22;10455;48.732;10.266;2022-12-18T07:30:22;-5.80;99.90
20594;DHT22;10455;48.732;10.266;2022-12-18T07:35:24;-5.70;99.90
20594;DHT22;10455;48.732;10.266;2022-12-18T07:45:32;-5.70;99.90
20594;DHT22;10455;48.732;10.266;2022-12-18T07:50:34;-5.50;99.90
20594;DHT22;10455;48.732;10.266;2022-12-18T07:55:36;-5.30;99.90
20594;DHT22;10455;48.732;10.266;2022-12-18T08:00:39;-5.30;99.90
20594;DHT22;10455;48.732;10.266;2022-12-18T08:05:41;-5.20;99.90
20594;DHT22;10455;48.732;10.266;2022-12-18T08:10:43;-5.10;99.90
20594;DHT22;10455;48.732;10.266;2022-12-18T08:15:46;-4.80;99.90
20594;DHT22;10455;48.732;10.266;2022-12-18T08:20:48;-4.40;99.90
20594;DHT22;10455;48.732;10.266;2022-12-18T08:25:50;-4.40;99.90
20594;DHT22;10455;48.732;10.266;2022-12-18T08:30:53;-4.70;99.90
20594;DHT22;10455;48.732;10.266;2022-12-18T08:35:55;-4.30;99.90
20594;DHT22;10455;48.732;10.266;2022-12-18T08:40:58;-4.40;99.90
20594;DHT22;10455;48.732;10.266;2022-12-18T08:46:02;-4.50;99.90
20594;DHT22;10455;48.732;10.266;2022-12-18T08:51:04;-4.50;99.90
20594;DHT22;10455;48.732;10.266;2022-12-18T08:56:07;-4.70;99.90
20594;DHT22;10455;48.732;10.266;2022-12-18T09:01:12;-4.40;99.90
20594;DHT22;10455;48.732;10.266;2022-12-18T09:06:15;-4.00;99.90
20594;DHT22;10455;48.732;10.266;2022-12-18T09:11:20;-3.90;99.90
20594;DHT22;10455;48.732;10.266;2022-12-18T09:16:26;-4.00;99.90
20594;DHT22;10455;48.732;10.266;2022-12-18T09:21:30;-3.90;99.90
20594;DHT22;10455;48.732;10.266;2022-12-18T09:26:32;-4.00;99.90
20594;DHT22;10455;48.732;10.266;2022-12-18T09:31:38;-3.70;99.90
20594;DHT22;10455;48.732;10.266;2022-12-18T09:36:40;-3.70;99.90
20594;DHT22;10455;48.732;10.266;2022-12-18T09:41:45;-3.50;99.90
20594;DHT22;10455;48.732;10.266;2022-12-18T09:46:53;-3.20;99.90
20594;DHT22;10455;48.732;10.266;2022-12-18T09:51:59;-3.60;99.90
20594;DHT22;10455;48.732;10.266;2022-12-18T09:57:04;-3.70;99.90
20594;DHT22;10455;48.732;10.266;2022-12-18T10:02:15;-3.20;99.90
20594;DHT22;10455;48.732;10.266;2022-12-18T10:07:22;-3.30;99.90
20594;DHT22;10455;48.732;10.266;2022-12-18T10:12:32;-2.90;99.90
20594;DHT22;10455;48.732;10.266;2022-12-18T10:17:45;-2.90;99.90
20594;DHT22;10455;48.732;10.266;2022-12-18T10:22:54;-2.70;99.90
20594;DHT22;10455;48.732;10.266;2022-12-18T10:28:00;-3.10;99.90
20594;DHT22;10455;48.732;10.266;2022-12-18T10:33:10;-2.90;99.90
20594;DHT22;10455;48.732;10.266;2022-12-18T10:38:23;-2.20;99.90
20594;DHT22;10455;48.732;10.266;2022-12-18T10:43:27;-2.20;99.90
20594;DHT22;10455;48.732;10.266;2022-12-18T10:48:32;-2.60;99.90
20594;DHT22;10455;48.732;10.266;2022-12-18T10:53:36;-2.00;99.90
20594;DHT22;10455;48.732;10.266;2022-12-18T10:58:39;-1.80;99.90
20594;DHT22;10455;48.732;10.266;2022-12-18T11:03:44;-2.40;99.90
20594;DHT22;10455;48.732;10.266;2022-12-18T11:08:58;-3.10;99.90
20594;DHT22;10455;48.732;10.266;2022-12-18T11:14:03;-3.40;99.90
20594;DHT22;10455;48.732;10.266;2022-12-18T11:19:21;-3.40;99.90
20594;DHT22;10455;48.732;10.266;2022-12-18T11:24:29;-2.90;99.90
20594;DHT22;10455;48.732;10.266;2022-12-18T11:29:34;-2.00;99.90
20594;DHT22;10455;48.732;10.266;2022-12-18T11:34:37;-2.60;99.90
20594;DHT22;10455;48.732;10.266;2022-12-18T11:39:42;-3.00;99.90
20594;DHT22;10455;48.732;10.266;2022-12-18T11:44:48;-2.40;99.90
20594;DHT22;10455;48.732;10.266;2022-12-18T11:49:53;-2.40;99.90
20594;DHT22;10455;48.732;10.266;2022-12-18T11:55:00;-2.80;99.90
20594;DHT22;10455;48.732;10.266;2022-12-18T12:00:09;-2.90;99.90
20594;DHT22;10455;48.732;10.266;2022-12-18T12:05:25;-2.50;99.90
20594;DHT22;10455;48.732;10.266;2022-12-18T12:10:40;-2.10;99.90
20594;DHT22;10455;48.732;10.266;2022-12-18T12:15:50;-1.60;99.90
20594;DHT22;10455;48.732;10.266;2022-12-18T12:21:03;-1.20;99.90
20594;DHT22;10455;48.732;10.266;2022-12-18T12:26:11;-1.10;99.90
20594;DHT22;10455;48.732;10.266;2022-12-18T12:31:21;-1.00;99.90
20594;DHT22;10455;48.732;10.266;2022-12-18T12:36:32;-1.40;99.90
20594;DHT22;10455;48.732;10.266;2022-12-18T12:41:37;-2.20;99.90
20594;DHT22;10455;48.732;10.266;2022-12-18T12:47:01;-2.30;99.90
20594;DHT22;10455;48.732;10.266;2022-12-18T12:52:12;-2.00;99.90
20594;DHT22;10455;48.732;10.266;2022-12-18T12:57:24;-2.40;99.90
20594;DHT22;10455;48.732;10.266;2022-12-18T13:02:30;-3.00;99.90
20594;DHT22;10455;48.732;10.266;2022-12-18T13:07:41;-2.90;99.90
20594;DHT22;10455;48.732;10.266;2022-12-18T13:12:52;-2.30;99.90
20594;DHT22;10455;48.732;10.266;2022-12-18T13:18:05;-2.50;99.90
20594;DHT22;10455;48.732;10.266;2022-12-18T13:23:31;-2.70;99.90
20594;DHT22;10455;48.732;10.266;2022-12-18T13:28:54;-3.10;99.90
20594;DHT22;10455;48.732;10.266;2022-12-18T13:34:12;-2.80;99.90
20594;DHT22;10455;48.732;10.266;2022-12-18T13:39:35;-2.80;99.90
20594;DHT22;10455;48.732;10.266;2022-12-18T13:44:39;-2.60;99.90
20594;DHT22;10455;48.732;10.266;2022-12-18T13:49:43;-2.10;99.90
20594;DHT22;10455;48.732;10.266;2022-12-18T13:54:50;-2.10;99.90
20594;DHT22;10455;48.732;10.266;2022-12-18T13:59:53;-2.90;99.90
20594;DHT22;10455;48.732;10.266;2022-12-18T14:04:55;-3.10;99.90
20594;DHT22;10455;48.732;10.266;2022-12-18T14:09:59;-3.00;99.90
20594;DHT22;10455;48.732;10.266;2022-12-18T14:15:03;-3.20;99.90
20594;DHT22;10455;48.732;10.266;2022-12-18T14:20:13;-3.40;99.90
20594;DHT22;10455;48.732;10.266;2022-12-18T14:25:19;-3.70;99.90
20594;DHT22;10455;48.732;10.266;2022-12-18T14:30:28;-3.70;99.90
20594;DHT22;10455;48.732;10.266;2022-12-18T14:35:31;-3.50;99.90
20594;DHT22;10455;48.732;10.266;2022-12-18T14:40:34;-3.60;99.90
20594;DHT22;10455;48.732;10.266;2022-12-18T14:45:39;-3.50;99.90
20594;DHT22;10455;48.732;10.266;2022-12-18T14:50:41;-3.40;99.90
20594;DHT22;10455;48.732;10.266;2022-12-18T14:55:46;-4.00;99.90
20594;DHT22;10455;48.732;10.266;2022-12-18T15:00:49;-4.00;99.90
20594;DHT22;10455;48.732;10.266;2022-12-18T15:05:51;-3.70;99.90
20594;DHT22;10455;48.732;10.266;2022-12-18T15:10:55;-4.10;99.90
20594;DHT22;10455;48.732;10.266;2022-12-18T15:16:00;-4.20;99.90
20594;DHT22;10455;48.732;10.266;2022-12-18T15:21:09;-4.10;99.90
20594;DHT22;10455;48.732;10.266;2022-12-18T15:26:14;-4.10;99.90
20594;DHT22;10455;48.732;10.266;2022-12-18T15:31:24;-4.40;99.90
20594;DHT22;10455;48.732;10.266;2022-12-18T15:36:30;-4.70;99.90
20594;DHT22;10455;48.732;10.266;2022-12-18T15:41:35;-4.80;99.90
20594;DHT22;10455;48.732;10.266;2022-12-18T15:46:37;-4.70;99.90
20594;DHT22;10455;48.732;10.266;2022-12-18T15:51:39;-4.40;99.90
20594;DHT22;10455;48.732;10.266;2022-12-18T15:56:42;-4.60;99.90
20594;DHT22;10455;48.732;10.266;2022-12-18T16:02:02;-4.60;99.90
20594;DHT22;10455;48.732;10.266;2022-12-18T16:07:03;-4.60;99.90
20594;DHT22;10455;48.732;10.266;2022-12-18T16:12:14;-4.40;99.90
20594;DHT22;10455;48.732;10.266;2022-12-18T16:17:16;-4.30;99.90
20594;DHT22;10455;48.732;10.266;2022-12-18T16:22:20;-4.30;99.90
20594;DHT22;10455;48.732;10.266;2022-12-18T16:27:24;-4.20;99.90
20594;DHT22;10455;48.732;10.266;2022-12-18T16:32:27;-4.30;99.90
20594;DHT22;10455;48.732;10.266;2022-12-18T16:37:28;-4.10;99.90
20594;DHT22;10455;48.732;10.266;2022-12-18T16:42:32;-4.20;99.90
20594;DHT22;10455;48.732;10.266;2022-12-18T16:47:34;-4.30;99.90
20594;DHT22;10455;48.732;10.266;2022-12-18T16:52:36;-4.40;99.90
20594;DHT22;10455;48.732;10.266;2022-12-18T16:57:39;-4.50;99.90
20594;DHT22;10455;48.732;10.266;2022-12-18T17:02:41;-4.50;99.90
20594;DHT22;10455;48.732;10.266;2022-12-18T17:07:43;-4.40;99.90
20594;DHT22;10455;48.732;10.266;2022-12-18T17:12:46;-4.40;99.90
20594;DHT22;10455;48.732;10.266;2022-12-18T17:17:48;-4.40;99.90
20594;DHT22;10455;48.732;10.266;2022-12-18T17:22:50;-4.30;99.90
20594;DHT22;10455;48.732;10.266;2022-12-18T17:27:54;-4.20;99.90
20594;DHT22;10455;48.732;10.266;2022-12-18T17:32:57;-4.20;99.90
20594;DHT22;10455;48.732;10.266;2022-12-18T17:37:59;-4.20;99.90
20594;DHT22;10455;48.732;10.266;2022-12-18T17:43:03;-4.20;99.90
20594;DHT22;10455;48.732;10.266;2022-12-18T17:48:06;-4.70;99.90
20594;DHT22;10455;48.732;10.266;2022-12-18T17:53:08;-4.60;99.90
20594;DHT22;10455;48.732;10.266;2022-12-18T17:58:11;-4.70;99.90
20594;DHT22;10455;48.732;10.266;2022-12-18T18:03:13;-4.70;99.90
20594;DHT22;10455;48.732;10.266;2022-12-18T18:08:15;-4.50;99.90
20594;DHT22;10455;48.732;10.266;2022-12-18T18:13:20;-4.40;99.90
20594;DHT22;10455;48.732;10.266;2022-12-18T18:18:40;-4.60;99.90
20594;DHT22;10455;48.732;10.266;2022-12-18T18:23:42;-4.50;99.90
20594;DHT22;10455;48.732;10.266;2022-12-18T18:28:45;-4.50;99.90
20594;DHT22;10455;48.732;10.266;2022-12-18T18:33:47;-4.30;99.90
20594;DHT22;10455;48.732;10.266;2022-12-18T18:38:49;-4.40;99.90
20594;DHT22;10455;48.732;10.266;2022-12-18T18:43:55;-4.50;99.90
20594;DHT22;10455;48.732;10.266;2022-12-18T18:48:57;-4.40;99.90
20594;DHT22;10455;48.732;10.266;2022-12-18T18:53:59;-4.70;99.90
20594;DHT22;10455;48.732;10.266;2022-12-18T18:59:02;-4.90;99.90
20594;DHT22;10455;48.732;10.266;2022-12-18T19:04:04;-4.90;99.90
20594;DHT22;10455;48.732;10.266;2022-12-18T19:09:07;-4.70;99.90
20594;DHT22;10455;48.732;10.266;2022-12-18T19:14:12;-4.50;99.90
20594;DHT22;10455;48.732;10.266;2022-12-18T19:19:14;-4.60;99.90
20594;DHT22;10455;48.732;10.266;2022-12-18T19:24:19;-4.60;99.90
20594;DHT22;10455;48.732;10.266;2022-12-18T19:29:23;-4.40;99.90
20594;DHT22;10455;48.732;10.266;2022-12-18T19:34:25;-4.50;99.90
20594;DHT22;10455;48.732;10.266;2022-12-18T19:39:27;-4.60;99.90
20594;DHT22;10455;48.732;10.266;2022-12-18T19:44:30;-4.60;99.90
20594;DHT22;10455;48.732;10.266;2022-12-18T19:49:32;-4.50;99.90
20594;DHT22;10455;48.732;10.266;2022-12-18T19:54:34;-4.40;99.90
20594;DHT22;10455;48.732;10.266;2022-12-18T19:59:39;-4.50;99.90
20594;DHT22;10455;48.732;10.266;2022-12-18T20:04:41;-4.50;99.90
20594;DHT22;10455;48.732;10.266;2022-12-18T20:09:42;-4.30;99.90
20594;DHT22;10455;48.732;10.266;2022-12-18T20:14:46;-4.30;99.90
20594;DHT22;10455;48.732;10.266;2022-12-18T20:19:48;-4.30;99.90
20594;DHT22;10455;48.732;10.266;2022-12-18T20:24:49;-4.40;99.90
20594;DHT22;10455;48.732;10.266;2022-12-18T20:29:53;-4.30;99.90
20594;DHT22;10455;48.732;10.266;2022-12-18T20:34:55;-4.50;99.90
20594;DHT22;10455;48.732;10.266;2022-12-18T20:39:56;-4.50;99.90
20594;DHT22;10455;48.732;10.266;2022-12-18T20:45:00;-4.60;99.90
20594;DHT22;10455;48.732;10.266;2022-12-18T20:50:02;-4.50;99.90
20594;DHT22;10455;48.732;10.266;2022-12-18T20:55:04;-4.40;99.90
20594;DHT22;10455;48.732;10.266;2022-12-18T21:00:09;-4.30;99.90
20594;DHT22;10455;48.732;10.266;2022-12-18T21:05:12;-4.40;99.90
20594;DHT22;10455;48.732;10.266;2022-12-18T21:10:14;-4.50;99.90
20594;DHT22;10455;48.732;10.266;2022-12-18T21:15:17;-4.60;99.90
20594;DHT22;10455;48.732;10.266;2022-12-18T21:20:19;-4.50;99.90
20594;DHT22;10455;48.732;10.266;2022-12-18T21:25:21;-4.40;99.90
20594;DHT22;10455;48.732;10.266;2022-12-18T21:30:24;-4.40;99.90
20594;DHT22;10455;48.732;10.266;2022-12-18T21:35:26;-4.60;99.90
20594;DHT22;10455;48.732;10.266;2022-12-18T21:40:28;-4.70;99.90
20594;DHT22;10455;48.732;10.266;2022-12-18T21:45:31;-4.70;99.90
20594;DHT22;10455;48.732;10.266;2022-12-18T21:50:33;-4.80;99.90
20594;DHT22;10455;48.732;10.266;2022-12-18T21:55:35;-4.60;99.90
20594;DHT22;10455;48.732;10.266;2022-12-18T22:00:38;-4.50;99.90
20594;DHT22;10455;48.732;10.266;2022-12-18T22:05:40;-4.40;99.90
20594;DHT22;10455;48.732;10.266;2022-12-18T22:10:42;-4.30;99.90
20594;DHT22;10455;48.732;10.266;2022-12-18T22:15:45;-4.40;99.90
20594;DHT22;10455;48.732;10.266;2022-12-18T22:20:47;-4.20;99.90
20594;DHT22;10455;48.732;10.266;2022-12-18T22:25:49;-4.30;99.90
20594;DHT22;10455;48.732;10.266;2022-12-18T22:30:52;-4.00;99.90
20594;DHT22;10455;48.732;10.266;2022-12-18T22:35:54;-3.90;99.90
20594;DHT22;10455;48.732;10.266;2022-12-18T22:40:56;-4.00;99.90
20594;DHT22;10455;48.732;10.266;2022-12-18T22:45:59;-3.90;99.90
20594;DHT22;10455;48.732;10.266;2022-12-18T22:51:02;-4.00;99.90
20594;DHT22;10455;48.732;10.266;2022-12-18T22:56:11;-4.40;99.90
20594;DHT22;10455;48.732;10.266;2022-12-18T23:01:18;-4.20;99.90
20594;DHT22;10455;48.732;10.266;2022-12-18T23:06:22;-4.00;99.90
20594;DHT22;10455;48.732;10.266;2022-12-18T23:11:25;-3.80;99.90
20594;DHT22;10455;48.732;10.266;2022-12-18T23:16:29;-3.80;99.90
20594;DHT22;10455;48.732;10.266;2022-12-18T23:21:31;-4.00;99.90
20594;DHT22;10455;48.732;10.266;2022-12-18T23:26:34;-3.70;99.90
20594;DHT22;10455;48.732;10.266;2022-12-18T23:31:38;-3.70;99.90
20594;DHT22;10455;48.732;10.266;2022-12-18T23:36:40;-3.70;99.90
20594;DHT22;10455;48.732;10.266;2022-12-18T23:41:42;-3.70;99.90
20594;DHT22;10455;48.732;10.266;2022-12-18T23:46:45;-3.60;99.90
20594;DHT22;10455;48.732;10.266;2022-12-18T23:51:47;-3.50;99.90
20594;DHT22;10455;48.732;10.266;2022-12-18T23:56:49;-3.50;99.90
